sensor_id;sensor_type;location;lat;lon;timestamp;P1;durP1;ratioP1;P2;durP2;ratioP2
77589;SDS011;66746;51.328;12.332;2023-04-06T00:01:23;10.65;;;9.32;;
77589;SDS011;66746;51.328;12.332;2023-04-06T00:03:49;12.15;;;9.02;;
77589;SDS011;66746;51.328;12.332;2023-04-06T00:06:16;9.65;;;8.32;;
77589;SDS011;66746;51.328;12.332;2023-04-06T00:08:42;9.30;;;8.45;;
77589;SDS011;66746;51.328;12.332;2023-04-06T00:11:10;10.30;;;8.63;;
77589;SDS011;66746;51.328;12.332;2023-04-06T00:13:37;9.60;;;7.75;;
77589;SDS011;66746;51.328;12.332;2023-04-06T00:16:03;8.48;;;7.13;;
77589;SDS011;66746;51.328;12.332;2023-04-06T00:18:30;9.88;;;7.93;;
77589;SDS011;66746;51.328;12.332;2023-04-06T00:20:57;9.20;;;8.35;;
77589;SDS011;66746;51.328;12.332;2023-04-06T00:23:23;9.77;;;8.07;;
77589;SDS011;66746;51.328;12.332;2023-04-06T00:25:50;8.50;;;7.13;;
77589;SDS011;66746;51.328;12.332;2023-04-06T00:28:17;8.43;;;7.53;;
77589;SDS011;66746;51.328;12.332;2023-04-06T00:30:44;10.18;;;9.25;;
77589;SDS011;66746;51.328;12.332;2023-04-06T00:33:10;7.47;;;6.05;;
77589;SDS011;66746;51.328;12.332;2023-04-06T00:35:37;9.77;;;8.35;;
77589;SDS011;66746;51.328;12.332;2023-04-06T00:38:03;9.13;;;8.05;;
77589;SDS011;66746;51.328;12.332;2023-04-06T00:40:30;10.05;;;9.05;;
77589;SDS011;66746;51.328;12.332;2023-04-06T00:42:57;10.55;;;9.00;;
77589;SDS011;66746;51.328;12.332;2023-04-06T00:45:25;9.88;;;8.73;;
77589;SDS011;66746;51.328;12.332;2023-04-06T00:47:51;10.27;;;8.65;;
77589;SDS011;66746;51.328;12.332;2023-04-06T00:50:18;8.60;;;6.47;;
77589;SDS011;66746;51.328;12.332;2023-04-06T00:52:44;9.48;;;8.57;;
77589;SDS011;66746;51.328;12.332;2023-04-06T00:55:11;9.50;;;8.57;;
77589;SDS011;66746;51.328;12.332;2023-04-06T00:57:41;8.82;;;7.97;;
77589;SDS011;66746;51.328;12.332;2023-04-06T01:00:08;9.35;;;8.30;;
77589;SDS011;66746;51.328;12.332;2023-04-06T01:02:37;7.68;;;6.97;;
77589;SDS011;66746;51.328;12.332;2023-04-06T01:05:04;11.23;;;8.73;;
77589;SDS011;66746;51.328;12.332;2023-04-06T01:07:43;9.02;;;8.20;;
77589;SDS011;66746;51.328;12.332;2023-04-06T01:10:26;9.60;;;8.55;;
77589;SDS011;66746;51.328;12.332;2023-04-06T01:13:10;8.38;;;7.57;;
77589;SDS011;66746;51.328;12.332;2023-04-06T01:19:27;8.77;;;7.97;;
77589;SDS011;66746;51.328;12.332;2023-04-06T01:21:54;10.60;;;9.75;;
77589;SDS011;66746;51.328;12.332;2023-04-06T01:24:31;10.27;;;9.38;;
77589;SDS011;66746;51.328;12.332;2023-04-06T01:27:16;9.73;;;8.00;;
77589;SDS011;66746;51.328;12.332;2023-04-06T01:29:57;9.57;;;8.57;;
77589;SDS011;66746;51.328;12.332;2023-04-06T01:32:35;9.70;;;8.35;;
77589;SDS011;66746;51.328;12.332;2023-04-06T01:35:01;9.20;;;8.30;;
77589;SDS011;66746;51.328;12.332;2023-04-06T01:37:32;8.93;;;7.95;;
77589;SDS011;66746;51.328;12.332;2023-04-06T01:40:03;10.13;;;8.68;;
77589;SDS011;66746;51.328;12.332;2023-04-06T01:42:42;9.50;;;8.57;;
77589;SDS011;66746;51.328;12.332;2023-04-06T01:45:13;10.93;;;6.55;;
77589;SDS011;66746;51.328;12.332;2023-04-06T01:47:39;8.77;;;7.88;;
77589;SDS011;66746;51.328;12.332;2023-04-06T01:50:06;9.48;;;8.50;;
77589;SDS011;66746;51.328;12.332;2023-04-06T01:52:39;9.02;;;8.27;;
77589;SDS011;66746;51.328;12.332;2023-04-06T01:55:07;9.18;;;8.15;;
77589;SDS011;66746;51.328;12.332;2023-04-06T01:57:54;10.00;;;9.00;;
77589;SDS011;66746;51.328;12.332;2023-04-06T02:00:31;8.80;;;7.90;;
77589;SDS011;66746;51.328;12.332;2023-04-06T02:02:57;8.60;;;7.70;;
77589;SDS011;66746;51.328;12.332;2023-04-06T02:05:27;9.57;;;8.52;;
77589;SDS011;66746;51.328;12.332;2023-04-06T02:07:56;9.25;;;7.80;;
77589;SDS011;66746;51.328;12.332;2023-04-06T02:10:32;9.48;;;8.75;;
77589;SDS011;66746;51.328;12.332;2023-04-06T02:13:03;9.40;;;8.43;;
77589;SDS011;66746;51.328;12.332;2023-04-06T02:15:30;9.70;;;7.90;;
77589;SDS011;66746;51.328;12.332;2023-04-06T02:17:57;8.68;;;7.80;;
77589;SDS011;66746;51.328;12.332;2023-04-06T02:20:24;9.55;;;8.55;;
77589;SDS011;66746;51.328;12.332;2023-04-06T02:22:51;9.63;;;8.68;;
77589;SDS011;66746;51.328;12.332;2023-04-06T02:25:17;10.30;;;9.13;;
77589;SDS011;66746;51.328;12.332;2023-04-06T02:27:45;9.35;;;8.45;;
77589;SDS011;66746;51.328;12.332;2023-04-06T02:30:12;9.48;;;8.48;;
77589;SDS011;66746;51.328;12.332;2023-04-06T02:32:38;9.65;;;8.05;;
77589;SDS011;66746;51.328;12.332;2023-04-06T02:35:05;10.70;;;8.57;;
77589;SDS011;66746;51.328;12.332;2023-04-06T02:37:33;10.20;;;8.95;;
77589;SDS011;66746;51.328;12.332;2023-04-06T02:39:59;8.60;;;7.65;;
77589;SDS011;66746;51.328;12.332;2023-04-06T02:42:28;12.00;;;10.43;;
77589;SDS011;66746;51.328;12.332;2023-04-06T02:44:56;10.32;;;9.32;;
77589;SDS011;66746;51.328;12.332;2023-04-06T02:47:26;9.07;;;7.95;;
77589;SDS011;66746;51.328;12.332;2023-04-06T02:49:53;8.70;;;7.88;;
77589;SDS011;66746;51.328;12.332;2023-04-06T02:52:19;9.88;;;7.82;;
77589;SDS011;66746;51.328;12.332;2023-04-06T02:54:46;11.65;;;8.85;;
77589;SDS011;66746;51.328;12.332;2023-04-06T02:57:13;9.98;;;8.45;;
77589;SDS011;66746;51.328;12.332;2023-04-06T02:59:43;10.07;;;9.10;;
77589;SDS011;66746;51.328;12.332;2023-04-06T03:02:19;10.25;;;8.50;;
77589;SDS011;66746;51.328;12.332;2023-04-06T03:04:46;9.50;;;8.60;;
77589;SDS011;66746;51.328;12.332;2023-04-06T03:07:22;9.95;;;7.28;;
77589;SDS011;66746;51.328;12.332;2023-04-06T03:09:49;9.60;;;8.32;;
77589;SDS011;66746;51.328;12.332;2023-04-06T03:12:16;9.02;;;7.82;;
77589;SDS011;66746;51.328;12.332;2023-04-06T03:15:03;8.85;;;7.95;;
77589;SDS011;66746;51.328;12.332;2023-04-06T03:17:32;10.35;;;9.18;;
77589;SDS011;66746;51.328;12.332;2023-04-06T03:20:02;10.20;;;9.20;;
77589;SDS011;66746;51.328;12.332;2023-04-06T03:22:30;10.68;;;9.68;;
77589;SDS011;66746;51.328;12.332;2023-04-06T03:24:57;8.43;;;7.25;;
77589;SDS011;66746;51.328;12.332;2023-04-06T03:27:25;8.85;;;8.00;;
77589;SDS011;66746;51.328;12.332;2023-04-06T03:29:53;9.20;;;8.30;;
77589;SDS011;66746;51.328;12.332;2023-04-06T03:32:25;9.45;;;7.93;;
77589;SDS011;66746;51.328;12.332;2023-04-06T03:34:53;11.35;;;10.23;;
77589;SDS011;66746;51.328;12.332;2023-04-06T03:37:20;10.45;;;9.38;;
77589;SDS011;66746;51.328;12.332;2023-04-06T03:39:51;10.75;;;9.52;;
77589;SDS011;66746;51.328;12.332;2023-04-06T03:42:21;11.98;;;10.52;;
77589;SDS011;66746;51.328;12.332;2023-04-06T03:44:55;9.50;;;8.38;;
77589;SDS011;66746;51.328;12.332;2023-04-06T03:47:22;9.63;;;8.60;;
77589;SDS011;66746;51.328;12.332;2023-04-06T03:49:50;10.10;;;6.80;;
77589;SDS011;66746;51.328;12.332;2023-04-06T03:52:17;9.25;;;8.30;;
77589;SDS011;66746;51.328;12.332;2023-04-06T03:54:44;9.15;;;7.38;;
77589;SDS011;66746;51.328;12.332;2023-04-06T03:57:10;9.93;;;8.88;;
77589;SDS011;66746;51.328;12.332;2023-04-06T03:59:37;11.57;;;8.75;;
77589;SDS011;66746;51.328;12.332;2023-04-06T04:02:03;10.55;;;7.68;;
77589;SDS011;66746;51.328;12.332;2023-04-06T04:04:30;11.88;;;9.32;;
77589;SDS011;66746;51.328;12.332;2023-04-06T04:06:57;11.27;;;10.13;;
77589;SDS011;66746;51.328;12.332;2023-04-06T04:09:24;11.23;;;9.93;;
77589;SDS011;66746;51.328;12.332;2023-04-06T04:11:54;12.73;;;11.43;;
77589;SDS011;66746;51.328;12.332;2023-04-06T04:14:21;10.63;;;9.55;;
77589;SDS011;66746;51.328;12.332;2023-04-06T04:16:47;11.25;;;9.77;;
77589;SDS011;66746;51.328;12.332;2023-04-06T04:19:14;10.63;;;8.75;;
77589;SDS011;66746;51.328;12.332;2023-04-06T04:21:43;11.55;;;9.13;;
77589;SDS011;66746;51.328;12.332;2023-04-06T04:24:15;10.48;;;9.43;;
77589;SDS011;66746;51.328;12.332;2023-04-06T04:26:43;10.43;;;9.32;;
77589;SDS011;66746;51.328;12.332;2023-04-06T04:29:10;10.20;;;9.10;;
77589;SDS011;66746;51.328;12.332;2023-04-06T04:31:37;12.32;;;9.90;;
77589;SDS011;66746;51.328;12.332;2023-04-06T04:34:10;10.63;;;9.55;;
77589;SDS011;66746;51.328;12.332;2023-04-06T04:36:37;9.93;;;8.63;;
77589;SDS011;66746;51.328;12.332;2023-04-06T04:39:06;11.80;;;8.00;;
77589;SDS011;66746;51.328;12.332;2023-04-06T04:41:38;11.20;;;10.15;;
77589;SDS011;66746;51.328;12.332;2023-04-06T04:44:09;11.32;;;10.23;;
77589;SDS011;66746;51.328;12.332;2023-04-06T04:46:36;13.40;;;11.55;;
77589;SDS011;66746;51.328;12.332;2023-04-06T04:49:03;10.23;;;9.23;;
77589;SDS011;66746;51.328;12.332;2023-04-06T04:51:30;11.77;;;10.60;;
77589;SDS011;66746;51.328;12.332;2023-04-06T04:54:07;10.40;;;8.90;;
77589;SDS011;66746;51.328;12.332;2023-04-06T04:56:34;10.57;;;9.52;;
77589;SDS011;66746;51.328;12.332;2023-04-06T04:59:11;12.18;;;7.68;;
77589;SDS011;66746;51.328;12.332;2023-04-06T05:01:40;10.70;;;9.30;;
77589;SDS011;66746;51.328;12.332;2023-04-06T05:04:25;10.23;;;9.23;;
77589;SDS011;66746;51.328;12.332;2023-04-06T05:07:01;11.35;;;9.75;;
77589;SDS011;66746;51.328;12.332;2023-04-06T05:09:30;11.38;;;8.45;;
77589;SDS011;66746;51.328;12.332;2023-04-06T05:11:56;10.60;;;9.52;;
77589;SDS011;66746;51.328;12.332;2023-04-06T05:14:25;10.13;;;9.13;;
77589;SDS011;66746;51.328;12.332;2023-04-06T05:16:53;10.55;;;9.45;;
77589;SDS011;66746;51.328;12.332;2023-04-06T05:19:23;9.60;;;8.70;;
77589;SDS011;66746;51.328;12.332;2023-04-06T05:21:49;12.48;;;11.07;;
77589;SDS011;66746;51.328;12.332;2023-04-06T05:24:15;13.90;;;11.80;;
77589;SDS011;66746;51.328;12.332;2023-04-06T05:26:44;12.07;;;10.45;;
77589;SDS011;66746;51.328;12.332;2023-04-06T05:29:18;10.50;;;9.48;;
77589;SDS011;66746;51.328;12.332;2023-04-06T05:31:47;11.82;;;8.85;;
77589;SDS011;66746;51.328;12.332;2023-04-06T05:34:14;10.45;;;9.30;;
77589;SDS011;66746;51.328;12.332;2023-04-06T05:36:41;11.40;;;9.30;;
77589;SDS011;66746;51.328;12.332;2023-04-06T05:39:16;9.63;;;8.55;;
77589;SDS011;66746;51.328;12.332;2023-04-06T05:41:46;9.50;;;7.78;;
77589;SDS011;66746;51.328;12.332;2023-04-06T05:44:14;8.32;;;7.47;;
77589;SDS011;66746;51.328;12.332;2023-04-06T05:46:44;12.02;;;8.52;;
77589;SDS011;66746;51.328;12.332;2023-04-06T05:49:15;10.10;;;9.10;;
77589;SDS011;66746;51.328;12.332;2023-04-06T05:51:42;11.02;;;9.35;;
77589;SDS011;66746;51.328;12.332;2023-04-06T05:54:09;14.25;;;9.38;;
77589;SDS011;66746;51.328;12.332;2023-04-06T05:56:36;11.32;;;9.23;;
77589;SDS011;66746;51.328;12.332;2023-04-06T05:59:03;9.25;;;7.30;;
77589;SDS011;66746;51.328;12.332;2023-04-06T06:01:30;9.40;;;8.25;;
77589;SDS011;66746;51.328;12.332;2023-04-06T06:03:56;11.15;;;10.02;;
77589;SDS011;66746;51.328;12.332;2023-04-06T06:06:28;12.30;;;10.43;;
77589;SDS011;66746;51.328;12.332;2023-04-06T06:09:14;10.48;;;9.45;;
77589;SDS011;66746;51.328;12.332;2023-04-06T06:11:49;11.35;;;10.20;;
77589;SDS011;66746;51.328;12.332;2023-04-06T06:14:17;9.50;;;8.50;;
77589;SDS011;66746;51.328;12.332;2023-04-06T06:16:43;9.75;;;8.65;;
77589;SDS011;66746;51.328;12.332;2023-04-06T06:19:12;11.13;;;10.07;;
77589;SDS011;66746;51.328;12.332;2023-04-06T06:21:40;9.77;;;8.50;;
77589;SDS011;66746;51.328;12.332;2023-04-06T06:24:06;9.73;;;8.57;;
77589;SDS011;66746;51.328;12.332;2023-04-06T06:26:33;10.05;;;8.85;;
77589;SDS011;66746;51.328;12.332;2023-04-06T06:29:00;9.77;;;8.77;;
77589;SDS011;66746;51.328;12.332;2023-04-06T06:31:27;9.45;;;8.48;;
77589;SDS011;66746;51.328;12.332;2023-04-06T06:33:55;8.85;;;7.85;;
77589;SDS011;66746;51.328;12.332;2023-04-06T06:36:24;8.93;;;8.02;;
77589;SDS011;66746;51.328;12.332;2023-04-06T06:38:52;8.73;;;7.85;;
77589;SDS011;66746;51.328;12.332;2023-04-06T06:41:20;11.48;;;8.27;;
77589;SDS011;66746;51.328;12.332;2023-04-06T06:43:46;9.20;;;6.25;;
77589;SDS011;66746;51.328;12.332;2023-04-06T06:46:12;9.57;;;8.48;;
77589;SDS011;66746;51.328;12.332;2023-04-06T06:48:40;11.85;;;8.73;;
77589;SDS011;66746;51.328;12.332;2023-04-06T06:51:06;9.00;;;8.13;;
77589;SDS011;66746;51.328;12.332;2023-04-06T06:53:32;9.32;;;8.57;;
77589;SDS011;66746;51.328;12.332;2023-04-06T06:56:00;9.32;;;8.38;;
77589;SDS011;66746;51.328;12.332;2023-04-06T06:58:28;9.68;;;8.30;;
77589;SDS011;66746;51.328;12.332;2023-04-06T07:00:55;9.02;;;8.32;;
77589;SDS011;66746;51.328;12.332;2023-04-06T07:03:22;8.02;;;7.32;;
77589;SDS011;66746;51.328;12.332;2023-04-06T07:05:49;10.15;;;8.13;;
77589;SDS011;66746;51.328;12.332;2023-04-06T07:08:16;10.52;;;8.05;;
77589;SDS011;66746;51.328;12.332;2023-04-06T07:10:42;8.48;;;7.63;;
77589;SDS011;66746;51.328;12.332;2023-04-06T07:13:10;8.35;;;7.05;;
77589;SDS011;66746;51.328;12.332;2023-04-06T07:15:36;8.32;;;6.85;;
77589;SDS011;66746;51.328;12.332;2023-04-06T07:18:03;10.27;;;9.32;;
77589;SDS011;66746;51.328;12.332;2023-04-06T07:20:29;8.50;;;7.70;;
77589;SDS011;66746;51.328;12.332;2023-04-06T07:22:56;7.95;;;6.63;;
77589;SDS011;66746;51.328;12.332;2023-04-06T07:25:23;7.93;;;7.32;;
77589;SDS011;66746;51.328;12.332;2023-04-06T07:27:52;12.45;;;7.90;;
77589;SDS011;66746;51.328;12.332;2023-04-06T07:30:20;8.30;;;7.50;;
77589;SDS011;66746;51.328;12.332;2023-04-06T07:32:47;9.30;;;8.00;;
77589;SDS011;66746;51.328;12.332;2023-04-06T07:35:14;9.00;;;8.10;;
77589;SDS011;66746;51.328;12.332;2023-04-06T07:37:40;8.80;;;8.02;;
77589;SDS011;66746;51.328;12.332;2023-04-06T07:40:08;9.48;;;8.10;;
77589;SDS011;66746;51.328;12.332;2023-04-06T07:42:36;9.88;;;8.88;;
77589;SDS011;66746;51.328;12.332;2023-04-06T07:45:05;7.78;;;7.00;;
77589;SDS011;66746;51.328;12.332;2023-04-06T07:47:33;12.23;;;11.07;;
77589;SDS011;66746;51.328;12.332;2023-04-06T07:50:00;8.50;;;7.70;;
77589;SDS011;66746;51.328;12.332;2023-04-06T07:52:27;8.68;;;7.88;;
77589;SDS011;66746;51.328;12.332;2023-04-06T07:54:54;7.93;;;7.13;;
77589;SDS011;66746;51.328;12.332;2023-04-06T07:57:21;10.57;;;7.70;;
77589;SDS011;66746;51.328;12.332;2023-04-06T07:59:47;9.35;;;8.20;;
77589;SDS011;66746;51.328;12.332;2023-04-06T08:02:13;11.02;;;8.13;;
77589;SDS011;66746;51.328;12.332;2023-04-06T08:04:41;9.48;;;8.40;;
77589;SDS011;66746;51.328;12.332;2023-04-06T08:07:10;9.15;;;8.30;;
77589;SDS011;66746;51.328;12.332;2023-04-06T08:09:37;8.27;;;7.47;;
77589;SDS011;66746;51.328;12.332;2023-04-06T08:12:03;7.65;;;7.00;;
77589;SDS011;66746;51.328;12.332;2023-04-06T08:14:30;8.13;;;7.35;;
77589;SDS011;66746;51.328;12.332;2023-04-06T08:16:56;11.75;;;8.45;;
77589;SDS011;66746;51.328;12.332;2023-04-06T08:19:23;8.15;;;6.32;;
77589;SDS011;66746;51.328;12.332;2023-04-06T08:21:51;9.75;;;7.82;;
77589;SDS011;66746;51.328;12.332;2023-04-06T08:24:17;11.13;;;7.57;;
77589;SDS011;66746;51.328;12.332;2023-04-06T08:26:44;10.27;;;7.57;;
77589;SDS011;66746;51.328;12.332;2023-04-06T08:29:10;8.38;;;7.05;;
77589;SDS011;66746;51.328;12.332;2023-04-06T08:31:36;8.77;;;7.97;;
77589;SDS011;66746;51.328;12.332;2023-04-06T08:34:03;9.40;;;7.40;;
77589;SDS011;66746;51.328;12.332;2023-04-06T08:36:30;8.48;;;7.68;;
77589;SDS011;66746;51.328;12.332;2023-04-06T08:38:58;8.50;;;7.70;;
77589;SDS011;66746;51.328;12.332;2023-04-06T08:41:25;9.05;;;6.80;;
77589;SDS011;66746;51.328;12.332;2023-04-06T08:43:55;9.77;;;8.05;;
77589;SDS011;66746;51.328;12.332;2023-04-06T08:46:23;7.90;;;7.15;;
77589;SDS011;66746;51.328;12.332;2023-04-06T08:48:50;7.95;;;5.63;;
77589;SDS011;66746;51.328;12.332;2023-04-06T08:51:16;9.48;;;8.02;;
77589;SDS011;66746;51.328;12.332;2023-04-06T08:53:43;8.18;;;6.10;;
77589;SDS011;66746;51.328;12.332;2023-04-06T08:56:11;8.57;;;7.00;;
77589;SDS011;66746;51.328;12.332;2023-04-06T08:58:39;8.93;;;7.97;;
77589;SDS011;66746;51.328;12.332;2023-04-06T09:01:06;8.05;;;7.25;;
77589;SDS011;66746;51.328;12.332;2023-04-06T09:03:35;8.88;;;8.07;;
77589;SDS011;66746;51.328;12.332;2023-04-06T09:06:04;10.70;;;7.25;;
77589;SDS011;66746;51.328;12.332;2023-04-06T09:08:32;9.30;;;7.43;;
77589;SDS011;66746;51.328;12.332;2023-04-06T09:10:59;10.43;;;7.57;;
77589;SDS011;66746;51.328;12.332;2023-04-06T09:13:27;8.27;;;7.55;;
77589;SDS011;66746;51.328;12.332;2023-04-06T09:16:00;9.40;;;8.40;;
77589;SDS011;66746;51.328;12.332;2023-04-06T09:18:28;8.50;;;7.68;;
77589;SDS011;66746;51.328;12.332;2023-04-06T09:20:59;8.80;;;7.95;;
77589;SDS011;66746;51.328;12.332;2023-04-06T09:23:26;8.55;;;6.57;;
77589;SDS011;66746;51.328;12.332;2023-04-06T09:26:04;7.80;;;7.00;;
77589;SDS011;66746;51.328;12.332;2023-04-06T09:28:42;8.20;;;7.40;;
77589;SDS011;66746;51.328;12.332;2023-04-06T09:31:10;7.80;;;7.10;;
77589;SDS011;66746;51.328;12.332;2023-04-06T09:33:37;9.27;;;8.35;;
77589;SDS011;66746;51.328;12.332;2023-04-06T09:36:04;9.38;;;8.18;;
77589;SDS011;66746;51.328;12.332;2023-04-06T09:38:32;10.85;;;7.93;;
77589;SDS011;66746;51.328;12.332;2023-04-06T09:40:58;8.98;;;7.35;;
77589;SDS011;66746;51.328;12.332;2023-04-06T09:43:27;9.27;;;7.72;;
77589;SDS011;66746;51.328;12.332;2023-04-06T09:45:55;10.13;;;7.03;;
77589;SDS011;66746;51.328;12.332;2023-04-06T09:48:23;7.78;;;6.97;;
77589;SDS011;66746;51.328;12.332;2023-04-06T09:50:56;8.85;;;7.20;;
77589;SDS011;66746;51.328;12.332;2023-04-06T09:53:26;9.70;;;8.80;;
77589;SDS011;66746;51.328;12.332;2023-04-06T09:55:57;7.80;;;6.50;;
77589;SDS011;66746;51.328;12.332;2023-04-06T09:58:28;7.30;;;6.20;;
77589;SDS011;66746;51.328;12.332;2023-04-06T10:01:07;6.70;;;5.93;;
77589;SDS011;66746;51.328;12.332;2023-04-06T10:03:37;6.90;;;6.22;;
77589;SDS011;66746;51.328;12.332;2023-04-06T10:06:10;7.30;;;6.07;;
77589;SDS011;66746;51.328;12.332;2023-04-06T10:08:39;7.95;;;7.25;;
77589;SDS011;66746;51.328;12.332;2023-04-06T10:11:07;9.73;;;6.75;;
77589;SDS011;66746;51.328;12.332;2023-04-06T10:13:37;7.10;;;6.40;;
77589;SDS011;66746;51.328;12.332;2023-04-06T10:16:03;6.95;;;6.25;;
77589;SDS011;66746;51.328;12.332;2023-04-06T10:18:32;8.20;;;7.55;;
77589;SDS011;66746;51.328;12.332;2023-04-06T10:21:00;6.47;;;5.82;;
77589;SDS011;66746;51.328;12.332;2023-04-06T10:23:31;7.10;;;6.40;;
77589;SDS011;66746;51.328;12.332;2023-04-06T10:26:01;7.72;;;7.03;;
77589;SDS011;66746;51.328;12.332;2023-04-06T10:28:32;9.43;;;7.80;;
77589;SDS011;66746;51.328;12.332;2023-04-06T10:31:00;7.40;;;6.70;;
77589;SDS011;66746;51.328;12.332;2023-04-06T10:33:29;6.93;;;6.22;;
77589;SDS011;66746;51.328;12.332;2023-04-06T10:35:55;6.35;;;5.75;;
77589;SDS011;66746;51.328;12.332;2023-04-06T10:38:32;7.38;;;6.65;;
77589;SDS011;66746;51.328;12.332;2023-04-06T10:41:03;8.45;;;7.68;;
77589;SDS011;66746;51.328;12.332;2023-04-06T10:43:32;7.32;;;6.72;;
77589;SDS011;66746;51.328;12.332;2023-04-06T10:46:00;8.73;;;8.02;;
77589;SDS011;66746;51.328;12.332;2023-04-06T10:48:37;7.15;;;6.43;;
77589;SDS011;66746;51.328;12.332;2023-04-06T10:51:07;7.30;;;6.68;;
77589;SDS011;66746;51.328;12.332;2023-04-06T10:53:39;7.15;;;6.47;;
77589;SDS011;66746;51.328;12.332;2023-04-06T10:56:09;8.80;;;6.90;;
77589;SDS011;66746;51.328;12.332;2023-04-06T10:58:36;7.25;;;6.65;;
77589;SDS011;66746;51.328;12.332;2023-04-06T11:01:04;6.80;;;6.10;;
77589;SDS011;66746;51.328;12.332;2023-04-06T11:03:31;7.55;;;6.95;;
77589;SDS011;66746;51.328;12.332;2023-04-06T11:05:58;7.70;;;7.00;;
77589;SDS011;66746;51.328;12.332;2023-04-06T11:08:25;7.22;;;6.53;;
77589;SDS011;66746;51.328;12.332;2023-04-06T11:11:03;7.32;;;6.68;;
77589;SDS011;66746;51.328;12.332;2023-04-06T11:13:36;6.55;;;5.25;;
77589;SDS011;66746;51.328;12.332;2023-04-06T11:16:03;5.70;;;4.82;;
77589;SDS011;66746;51.328;12.332;2023-04-06T11:18:31;8.15;;;7.32;;
77589;SDS011;66746;51.328;12.332;2023-04-06T11:20:59;8.63;;;5.95;;
77589;SDS011;66746;51.328;12.332;2023-04-06T11:23:25;6.85;;;6.18;;
77589;SDS011;66746;51.328;12.332;2023-04-06T11:25:52;7.53;;;6.72;;
77589;SDS011;66746;51.328;12.332;2023-04-06T11:28:20;7.50;;;6.90;;
77589;SDS011;66746;51.328;12.332;2023-04-06T11:30:47;7.10;;;6.20;;
77589;SDS011;66746;51.328;12.332;2023-04-06T11:33:19;7.68;;;5.55;;
77589;SDS011;66746;51.328;12.332;2023-04-06T11:35:46;6.85;;;6.15;;
77589;SDS011;66746;51.328;12.332;2023-04-06T11:38:14;7.22;;;6.30;;
77589;SDS011;66746;51.328;12.332;2023-04-06T11:40:41;6.78;;;6.18;;
77589;SDS011;66746;51.328;12.332;2023-04-06T11:43:10;7.00;;;6.43;;
77589;SDS011;66746;51.328;12.332;2023-04-06T11:45:41;6.97;;;6.18;;
77589;SDS011;66746;51.328;12.332;2023-04-06T11:48:17;9.15;;;5.90;;
77589;SDS011;66746;51.328;12.332;2023-04-06T11:50:46;5.28;;;4.78;;
77589;SDS011;66746;51.328;12.332;2023-04-06T11:53:12;7.15;;;5.57;;
77589;SDS011;66746;51.328;12.332;2023-04-06T11:55:40;6.57;;;5.97;;
77589;SDS011;66746;51.328;12.332;2023-04-06T11:58:06;8.80;;;6.88;;
77589;SDS011;66746;51.328;12.332;2023-04-06T12:00:35;6.53;;;5.93;;
77589;SDS011;66746;51.328;12.332;2023-04-06T12:03:11;7.63;;;7.00;;
77589;SDS011;66746;51.328;12.332;2023-04-06T12:08:05;5.75;;;4.95;;
77589;SDS011;66746;51.328;12.332;2023-04-06T12:10:31;6.07;;;5.57;;
77589;SDS011;66746;51.328;12.332;2023-04-06T12:12:59;6.82;;;6.22;;
77589;SDS011;66746;51.328;12.332;2023-04-06T12:15:26;6.15;;;5.65;;
77589;SDS011;66746;51.328;12.332;2023-04-06T12:17:52;7.03;;;6.00;;
77589;SDS011;66746;51.328;12.332;2023-04-06T12:20:19;9.07;;;7.25;;
77589;SDS011;66746;51.328;12.332;2023-04-06T12:22:52;7.30;;;6.63;;
77589;SDS011;66746;51.328;12.332;2023-04-06T12:25:18;8.57;;;6.75;;
77589;SDS011;66746;51.328;12.332;2023-04-06T12:27:45;6.97;;;6.28;;
77589;SDS011;66746;51.328;12.332;2023-04-06T12:30:13;7.80;;;7.07;;
77589;SDS011;66746;51.328;12.332;2023-04-06T12:32:40;7.75;;;6.95;;
77589;SDS011;66746;51.328;12.332;2023-04-06T12:35:07;6.28;;;5.68;;
77589;SDS011;66746;51.328;12.332;2023-04-06T12:37:34;8.23;;;6.70;;
77589;SDS011;66746;51.328;12.332;2023-04-06T12:40:01;5.60;;;4.88;;
77589;SDS011;66746;51.328;12.332;2023-04-06T12:42:27;6.25;;;5.72;;
77589;SDS011;66746;51.328;12.332;2023-04-06T12:44:54;7.47;;;6.80;;
77589;SDS011;66746;51.328;12.332;2023-04-06T12:47:21;7.22;;;6.63;;
77589;SDS011;66746;51.328;12.332;2023-04-06T12:49:48;6.38;;;5.85;;
77589;SDS011;66746;51.328;12.332;2023-04-06T12:52:14;6.65;;;6.15;;
77589;SDS011;66746;51.328;12.332;2023-04-06T12:54:41;7.13;;;6.57;;
77589;SDS011;66746;51.328;12.332;2023-04-06T12:57:07;7.57;;;6.75;;
77589;SDS011;66746;51.328;12.332;2023-04-06T12:59:34;7.20;;;6.55;;
77589;SDS011;66746;51.328;12.332;2023-04-06T13:02:01;7.05;;;6.45;;
77589;SDS011;66746;51.328;12.332;2023-04-06T13:04:30;7.85;;;6.57;;
77589;SDS011;66746;51.328;12.332;2023-04-06T13:06:56;4.97;;;4.43;;
77589;SDS011;66746;51.328;12.332;2023-04-06T13:09:23;5.07;;;4.60;;
77589;SDS011;66746;51.328;12.332;2023-04-06T13:11:49;6.80;;;6.18;;
77589;SDS011;66746;51.328;12.332;2023-04-06T13:14:40;7.65;;;6.95;;
77589;SDS011;66746;51.328;12.332;2023-04-06T13:17:07;6.47;;;5.88;;
77589;SDS011;66746;51.328;12.332;2023-04-06T13:19:35;7.10;;;6.45;;
77589;SDS011;66746;51.328;12.332;2023-04-06T13:22:02;7.05;;;6.43;;
77589;SDS011;66746;51.328;12.332;2023-04-06T13:24:28;6.88;;;5.68;;
77589;SDS011;66746;51.328;12.332;2023-04-06T13:26:55;7.18;;;6.57;;
77589;SDS011;66746;51.328;12.332;2023-04-06T13:29:26;8.00;;;7.18;;
77589;SDS011;66746;51.328;12.332;2023-04-06T13:31:52;6.65;;;6.07;;
77589;SDS011;66746;51.328;12.332;2023-04-06T13:34:19;7.65;;;5.40;;
77589;SDS011;66746;51.328;12.332;2023-04-06T13:36:47;7.32;;;6.63;;
77589;SDS011;66746;51.328;12.332;2023-04-06T13:39:13;7.60;;;7.00;;
77589;SDS011;66746;51.328;12.332;2023-04-06T13:41:40;7.10;;;6.50;;
77589;SDS011;66746;51.328;12.332;2023-04-06T13:44:18;12.63;;;7.60;;
77589;SDS011;66746;51.328;12.332;2023-04-06T13:46:45;10.88;;;7.18;;
77589;SDS011;66746;51.328;12.332;2023-04-06T13:49:11;6.75;;;6.10;;
77589;SDS011;66746;51.328;12.332;2023-04-06T13:51:43;7.68;;;7.07;;
77589;SDS011;66746;51.328;12.332;2023-04-06T13:54:14;7.20;;;6.60;;
77589;SDS011;66746;51.328;12.332;2023-04-06T13:56:42;8.35;;;7.07;;
77589;SDS011;66746;51.328;12.332;2023-04-06T13:59:15;5.65;;;5.18;;
77589;SDS011;66746;51.328;12.332;2023-04-06T14:01:43;7.55;;;6.85;;
77589;SDS011;66746;51.328;12.332;2023-04-06T14:04:12;9.07;;;7.63;;
77589;SDS011;66746;51.328;12.332;2023-04-06T14:06:40;7.10;;;6.50;;
77589;SDS011;66746;51.328;12.332;2023-04-06T14:09:15;7.40;;;6.70;;
77589;SDS011;66746;51.328;12.332;2023-04-06T14:11:41;6.50;;;5.97;;
77589;SDS011;66746;51.328;12.332;2023-04-06T14:14:16;8.05;;;7.28;;
77589;SDS011;66746;51.328;12.332;2023-04-06T14:16:43;9.63;;;6.82;;
77589;SDS011;66746;51.328;12.332;2023-04-06T14:19:12;8.70;;;6.50;;
77589;SDS011;66746;51.328;12.332;2023-04-06T14:21:44;7.15;;;6.45;;
77589;SDS011;66746;51.328;12.332;2023-04-06T14:24:11;7.25;;;6.65;;
77589;SDS011;66746;51.328;12.332;2023-04-06T14:26:42;7.80;;;6.93;;
77589;SDS011;66746;51.328;12.332;2023-04-06T14:29:15;7.72;;;6.88;;
77589;SDS011;66746;51.328;12.332;2023-04-06T14:31:42;7.25;;;6.55;;
77589;SDS011;66746;51.328;12.332;2023-04-06T14:34:08;7.72;;;7.10;;
77589;SDS011;66746;51.328;12.332;2023-04-06T14:36:41;7.13;;;6.53;;
77589;SDS011;66746;51.328;12.332;2023-04-06T14:39:10;7.85;;;7.15;;
77589;SDS011;66746;51.328;12.332;2023-04-06T14:41:39;7.63;;;6.93;;
77589;SDS011;66746;51.328;12.332;2023-04-06T14:44:11;7.60;;;6.03;;
77589;SDS011;66746;51.328;12.332;2023-04-06T14:46:38;7.18;;;6.50;;